createdAt,value
2022-11-19T00:01:26.790Z,46.73
2022-11-19T00:03:54.657Z,46.76
2022-11-19T00:06:25.855Z,46.78
2022-11-19T00:08:54.128Z,46.23
2022-11-19T00:11:43.367Z,46.39
2022-11-19T00:14:12.446Z,46.54
2022-11-19T00:16:40.001Z,46.48
2022-11-19T00:19:07.475Z,46.47
2022-11-19T00:21:35.754Z,46.46
2022-11-19T00:24:02.730Z,46.29
2022-11-19T00:26:29.751Z,46.92
2022-11-19T00:28:56.737Z,46.15
2022-11-19T00:31:23.996Z,46.66
2022-11-19T00:33:51.006Z,46.47
2022-11-19T00:36:18.426Z,46.08
2022-11-19T00:38:47.679Z,46.47
2022-11-19T00:41:14.978Z,46.58
2022-11-19T00:43:48.070Z,46.36
2022-11-19T00:46:17.550Z,46.66
2022-11-19T00:48:45.644Z,46.52
2022-11-19T00:51:13.451Z,46.46
2022-11-19T00:53:40.775Z,46.59
2022-11-19T00:56:11.770Z,46.34
2022-11-19T00:58:39.978Z,46.72
2022-11-19T01:01:08.915Z,45.97
2022-11-19T01:03:36.837Z,46.75
2022-11-19T01:06:06.191Z,46.63
2022-11-19T01:08:33.209Z,46.78
2022-11-19T01:11:06.499Z,45.78
2022-11-19T01:13:35.946Z,46.65
2022-11-19T01:16:06.819Z,47.22
2022-11-19T01:18:36.636Z,47.25
2022-11-19T01:21:05.328Z,46.94
2022-11-19T01:23:33.427Z,46.88
2022-11-19T01:26:00.635Z,46.53
2022-11-19T01:28:28.202Z,46.63
2022-11-19T01:30:57.431Z,46.59
2022-11-19T01:33:25.025Z,46.17
2022-11-19T01:35:57.307Z,46.20
2022-11-19T01:38:24.270Z,45.51
2022-11-19T01:40:51.802Z,46.09
2022-11-19T01:43:18.865Z,45.96
2022-11-19T01:45:48.983Z,45.55
2022-11-19T01:48:24.648Z,45.13
2022-11-19T01:50:57.150Z,45.22
2022-11-19T01:53:30.013Z,45.72
2022-11-19T01:56:03.808Z,45.38
2022-11-19T01:58:36.403Z,45.41
2022-11-19T02:01:04.245Z,45.62
2022-11-19T02:03:34.267Z,45.73
2022-11-19T02:06:03.202Z,45.57
2022-11-19T02:08:40.183Z,45.29
2022-11-19T02:11:49.973Z,46.04
2022-11-19T02:14:55.187Z,45.86
2022-11-19T02:17:42.983Z,45.19
2022-11-19T02:20:51.451Z,45.04
2022-11-19T02:24:01.652Z,45.40
2022-11-19T02:27:09.235Z,46.16
2022-11-19T02:30:00.705Z,45.74
2022-11-19T02:32:34.598Z,45.50
2022-11-19T02:35:15.920Z,45.33
2022-11-19T02:37:54.669Z,45.12
2022-11-19T02:40:28.628Z,46.24
2022-11-19T02:43:07.954Z,45.00
2022-11-19T02:45:42.793Z,45.74
2022-11-19T02:48:16.910Z,46.27
2022-11-19T02:50:48.516Z,45.66
2022-11-19T02:53:15.568Z,46.17
2022-11-19T02:56:02.918Z,45.53
2022-11-19T02:58:51.928Z,45.50
2022-11-19T03:01:41.047Z,45.78
2022-11-19T03:04:29.987Z,45.46
2022-11-19T03:07:02.236Z,45.13
2022-11-19T03:09:32.858Z,45.81
2022-11-19T03:12:12.791Z,46.21
2022-11-19T03:15:11.683Z,46.51
2022-11-19T03:18:00.645Z,46.02
2022-11-19T03:20:35.160Z,45.64
2022-11-19T03:23:11.971Z,46.34
2022-11-19T03:25:46.714Z,46.73
2022-11-19T03:28:21.225Z,45.80
2022-11-19T03:30:52.333Z,45.39
2022-11-19T03:33:26.557Z,45.44
2022-11-19T03:35:59.123Z,46.04
2022-11-19T03:38:31.440Z,46.54
2022-11-19T03:40:59.643Z,45.75
2022-11-19T03:43:31.331Z,45.61
2022-11-19T03:46:01.999Z,46.52
2022-11-19T03:48:32.019Z,46.00
2022-11-19T03:51:08.466Z,46.22
2022-11-19T03:53:35.518Z,46.17
2022-11-19T03:56:08.984Z,46.52
2022-11-19T03:58:40.302Z,46.28
2022-11-19T04:01:08.216Z,46.60
2022-11-19T04:03:37.262Z,46.71
2022-11-19T04:06:05.484Z,45.80
2022-11-19T04:08:32.852Z,46.01
2022-11-19T04:13:25.841Z,44.95
2022-11-19T04:15:52.835Z,45.26
2022-11-19T04:18:21.127Z,46.02
2022-11-19T04:20:49.406Z,45.40
2022-11-19T04:23:16.338Z,45.69
2022-11-19T04:25:47.154Z,46.13
2022-11-19T04:28:14.089Z,45.27
2022-11-19T04:30:41.019Z,46.57
2022-11-19T04:33:07.971Z,45.66
2022-11-19T04:35:35.017Z,45.44
2022-11-19T04:38:03.323Z,45.42
2022-11-19T04:40:30.274Z,45.00
2022-11-19T04:42:57.234Z,46.25
2022-11-19T04:45:24.163Z,45.12
2022-11-19T04:47:51.081Z,45.67
2022-11-19T04:50:17.999Z,45.54
2022-11-19T04:52:44.961Z,44.97
2022-11-19T04:55:13.681Z,46.13
2022-11-19T04:57:40.666Z,45.54
2022-11-19T05:00:09.639Z,46.08
2022-11-19T05:02:36.680Z,45.14
2022-11-19T05:05:04.116Z,46.07
2022-11-19T05:07:31.254Z,45.81
2022-11-19T05:09:58.285Z,45.56
2022-11-19T05:12:26.651Z,45.81
2022-11-19T05:14:53.605Z,45.56
2022-11-19T05:17:20.548Z,45.18
2022-11-19T05:19:47.489Z,46.27
2022-11-19T05:22:14.632Z,46.48
2022-11-19T05:24:41.574Z,45.80
2022-11-19T05:27:08.966Z,45.93
2022-11-19T05:29:37.220Z,45.07
2022-11-19T05:32:04.831Z,46.60
2022-11-19T05:34:31.757Z,46.51
2022-11-19T05:36:58.728Z,45.21
2022-11-19T05:39:26.081Z,46.14
2022-11-19T05:41:53.204Z,45.60
2022-11-19T05:44:20.146Z,45.95
2022-11-19T05:46:48.452Z,46.24
2022-11-19T05:49:15.398Z,46.56
2022-11-19T05:51:42.342Z,46.23
2022-11-19T05:54:09.309Z,45.74
2022-11-19T05:56:36.270Z,45.71
2022-11-19T05:59:03.223Z,45.13
2022-11-19T06:01:30.908Z,45.41
2022-11-19T06:03:59.234Z,45.60
2022-11-19T06:06:26.503Z,45.84
2022-11-19T06:08:53.578Z,45.34
2022-11-19T06:11:38.993Z,45.41
2022-11-19T06:14:06.187Z,46.51
2022-11-19T06:16:33.409Z,46.05
2022-11-19T06:19:01.642Z,45.99
2022-11-19T06:21:28.654Z,46.07
2022-11-19T06:23:55.623Z,45.92
2022-11-19T06:26:24.088Z,47.18
2022-11-19T06:28:51.646Z,46.41
2022-11-19T06:31:19.219Z,46.35
2022-11-19T06:33:46.385Z,46.61
2022-11-19T06:36:15.171Z,46.59
2022-11-19T06:38:42.132Z,46.20
2022-11-19T06:41:09.068Z,46.06
2022-11-19T06:43:36.009Z,46.66
2022-11-19T06:46:03.147Z,46.22
2022-11-19T06:48:30.339Z,46.38
2022-11-19T06:50:57.765Z,47.04
2022-11-19T06:53:26.019Z,47.39
2022-11-19T06:55:56.878Z,46.59
2022-11-19T06:58:23.946Z,47.29
2022-11-19T07:00:51.007Z,47.36
2022-11-19T07:03:18.401Z,47.12
2022-11-19T07:05:46.868Z,47.15
2022-11-19T07:08:14.310Z,45.85
2022-11-19T07:10:42.912Z,45.89
2022-11-19T07:13:09.860Z,46.24
2022-11-19T07:15:37.621Z,46.13
2022-11-19T07:18:05.126Z,45.53
2022-11-19T07:20:32.332Z,45.74
2022-11-19T07:22:59.649Z,46.36
2022-11-19T07:25:27.014Z,46.71
2022-11-19T07:27:55.394Z,45.56
2022-11-19T07:30:22.474Z,47.02
2022-11-19T07:32:49.421Z,46.13
2022-11-19T07:35:16.475Z,46.44
2022-11-19T07:37:43.442Z,45.92
2022-11-19T07:40:14.369Z,46.44
2022-11-19T07:42:51.728Z,47.05
2022-11-19T07:45:22.503Z,46.81
2022-11-19T07:47:49.629Z,45.85
2022-11-19T07:50:17.631Z,46.23
2022-11-19T07:52:45.102Z,46.68
2022-11-19T07:55:12.352Z,46.57
2022-11-19T07:57:39.351Z,46.98
2022-11-19T08:00:07.905Z,46.61
2022-11-19T08:02:36.487Z,46.41
2022-11-19T08:05:04.049Z,45.97
2022-11-19T08:07:31.034Z,46.77
2022-11-19T08:09:58.311Z,46.05
2022-11-19T08:12:25.286Z,46.26
2022-11-19T08:14:52.202Z,46.58
2022-11-19T08:17:37.901Z,46.16
2022-11-19T08:20:07.979Z,46.25
2022-11-19T08:22:36.964Z,46.29
2022-11-19T08:25:04.765Z,46.17
2022-11-19T08:27:31.883Z,45.05
2022-11-19T08:29:58.897Z,45.79
2022-11-19T08:32:25.866Z,45.82
2022-11-19T08:34:52.828Z,45.13
2022-11-19T08:37:21.130Z,44.96
2022-11-19T08:39:48.069Z,44.81
2022-11-19T08:42:33.977Z,45.19
2022-11-19T08:45:01.074Z,44.92
2022-11-19T08:47:28.017Z,44.65
2022-11-19T08:49:55.002Z,44.30
2022-11-19T08:52:23.324Z,44.26
2022-11-19T08:54:50.263Z,44.61
2022-11-19T08:57:17.314Z,44.50
2022-11-19T08:59:44.341Z,44.17
2022-11-19T09:02:11.565Z,44.54
2022-11-19T09:04:38.759Z,43.61
2022-11-19T09:07:05.746Z,43.49
2022-11-19T09:09:34.057Z,43.37
2022-11-19T09:12:01.025Z,44.12
2022-11-19T09:14:28.276Z,43.74
2022-11-19T09:16:56.273Z,43.27
2022-11-19T09:19:23.234Z,43.47
2022-11-19T09:21:50.421Z,43.04
2022-11-19T09:24:18.100Z,43.05
2022-11-19T09:26:51.739Z,42.64
2022-11-19T09:29:19.931Z,42.73
2022-11-19T09:31:46.871Z,42.63
2022-11-19T09:34:13.790Z,42.01
2022-11-19T09:36:40.747Z,41.68
2022-11-19T09:39:07.749Z,40.44
2022-11-19T09:41:55.213Z,40.00
2022-11-19T09:44:44.529Z,39.87
2022-11-19T09:47:30.938Z,39.56
2022-11-19T09:50:11.599Z,39.00
2022-11-19T09:52:45.854Z,38.37
2022-11-19T09:55:20.831Z,38.52
2022-11-19T09:57:55.111Z,38.56
2022-11-19T10:00:27.002Z,37.72
2022-11-19T10:02:55.149Z,37.43
2022-11-19T10:05:35.136Z,36.77
2022-11-19T10:08:26.114Z,36.92
2022-11-19T10:11:09.945Z,36.85
2022-11-19T10:13:53.433Z,36.77
2022-11-19T10:16:38.792Z,36.86
2022-11-19T10:19:20.963Z,37.24
2022-11-19T10:22:00.946Z,37.21
2022-11-19T10:24:41.738Z,37.00
2022-11-19T10:27:19.627Z,37.76
2022-11-19T10:29:56.413Z,37.79
2022-11-19T10:32:32.532Z,37.35
2022-11-19T10:35:08.191Z,37.66
2022-11-19T10:37:47.445Z,38.02
2022-11-19T10:40:22.617Z,37.87
2022-11-19T10:42:55.079Z,37.91
2022-11-19T10:45:27.027Z,37.68
2022-11-19T10:48:08.817Z,38.56
2022-11-19T10:50:37.303Z,37.96
2022-11-19T10:53:13.587Z,38.44
2022-11-19T10:55:47.820Z,38.28
2022-11-19T10:58:25.636Z,38.81
2022-11-19T11:00:58.061Z,38.37
2022-11-19T11:03:30.847Z,38.64
2022-11-19T11:06:05.289Z,38.74
2022-11-19T11:08:33.135Z,38.66
2022-11-19T11:11:01.231Z,39.33
2022-11-19T11:13:56.960Z,39.20
2022-11-19T11:16:39.855Z,39.11
2022-11-19T11:19:14.653Z,39.43
2022-11-19T11:21:43.636Z,39.06
2022-11-19T11:24:12.966Z,39.43
2022-11-19T11:26:40.818Z,39.27
2022-11-19T11:29:27.477Z,39.57
2022-11-19T11:31:56.001Z,39.72
2022-11-19T11:34:35.701Z,39.00
2022-11-19T11:37:05.737Z,38.94
2022-11-19T11:39:37.600Z,39.73
2022-11-19T11:42:17.193Z,39.10
2022-11-19T11:44:52.467Z,39.57
2022-11-19T11:47:27.447Z,39.42
2022-11-19T11:50:15.017Z,38.84
2022-11-19T11:52:46.163Z,38.46
2022-11-19T11:55:29.318Z,38.55
2022-11-19T11:57:58.921Z,38.50
2022-11-19T12:00:40.711Z,38.30
2022-11-19T12:03:13.651Z,38.89
2022-11-19T12:05:56.491Z,39.01
2022-11-19T12:08:45.757Z,39.02
2022-11-19T12:11:26.050Z,38.75
2022-11-19T12:14:04.294Z,38.98
2022-11-19T12:16:57.491Z,39.29
2022-11-19T12:19:48.068Z,38.47
2022-11-19T12:22:32.143Z,39.72
2022-11-19T12:25:24.282Z,39.28
2022-11-19T12:28:14.966Z,39.16
2022-11-19T12:30:54.695Z,39.48
2022-11-19T12:33:44.192Z,39.47
2022-11-19T12:36:26.378Z,39.08
2022-11-19T12:39:02.714Z,39.82
2022-11-19T12:42:00.005Z,39.68
2022-11-19T12:44:44.695Z,39.17
2022-11-19T12:47:34.642Z,40.43
2022-11-19T12:50:26.695Z,40.35
2022-11-19T12:53:32.534Z,40.38
2022-11-19T12:56:20.326Z,40.43
2022-11-19T12:59:04.779Z,40.14
2022-11-19T13:01:37.435Z,40.64
2022-11-19T13:04:14.523Z,40.52
2022-11-19T13:06:48.641Z,40.14
2022-11-19T13:09:25.616Z,40.45
2022-11-19T13:11:59.383Z,40.39
2022-11-19T13:14:37.163Z,40.31
2022-11-19T13:17:13.918Z,40.37
2022-11-19T13:19:46.293Z,41.10
2022-11-19T13:22:20.843Z,40.97
2022-11-19T13:24:54.639Z,40.99
2022-11-19T13:27:27.089Z,40.91
2022-11-19T13:30:00.817Z,41.45
2022-11-19T13:32:38.983Z,40.94
2022-11-19T13:35:20.485Z,41.36
2022-11-19T13:37:58.847Z,41.25
2022-11-19T13:40:35.420Z,40.76
2022-11-19T13:43:31.985Z,40.61
2022-11-19T13:46:21.733Z,41.54
2022-11-19T13:48:58.406Z,41.26
2022-11-19T13:51:34.904Z,41.46
2022-11-19T13:54:07.017Z,42.10
2022-11-19T13:56:47.162Z,41.37
2022-11-19T13:59:39.396Z,41.63
2022-11-19T14:02:47.666Z,41.89
2022-11-19T14:05:48.703Z,41.65
2022-11-19T14:09:02.097Z,41.77
2022-11-19T14:12:01.559Z,41.38
2022-11-19T14:15:40.764Z,41.57
2022-11-19T14:18:42.707Z,41.06
2022-11-19T14:22:06.913Z,41.25
2022-11-19T14:25:15.877Z,41.25
2022-11-19T14:28:17.286Z,42.07
2022-11-19T14:31:03.065Z,42.17
2022-11-19T14:33:59.951Z,42.09
2022-11-19T14:36:43.372Z,41.87
2022-11-19T14:39:22.670Z,42.19
2022-11-19T14:42:15.687Z,42.23
2022-11-19T14:44:45.170Z,41.95
2022-11-19T14:47:38.369Z,41.95
2022-11-19T14:50:09.307Z,42.77
2022-11-19T14:52:51.809Z,42.85
2022-11-19T14:56:12.225Z,42.85
2022-11-19T14:58:51.298Z,43.51
2022-11-19T15:01:23.619Z,42.63
2022-11-19T15:03:55.810Z,43.33
2022-11-19T15:06:23.810Z,43.25
2022-11-19T15:08:53.967Z,43.13
2022-11-19T15:11:21.037Z,43.43
2022-11-19T15:14:27.602Z,43.94
2022-11-19T15:17:00.992Z,44.08
2022-11-19T15:19:43.927Z,43.91
2022-11-19T15:22:40.951Z,44.12
2022-11-19T15:25:40.791Z,44.11
2022-11-19T15:28:30.317Z,44.56
2022-11-19T15:31:20.264Z,44.56
2022-11-19T15:34:49.042Z,44.51
2022-11-19T15:37:33.866Z,44.64
2022-11-19T15:40:02.897Z,45.27
2022-11-19T15:42:41.279Z,45.81
2022-11-19T15:45:17.983Z,45.39
2022-11-19T15:47:52.554Z,45.16
2022-11-19T15:50:24.366Z,45.29
2022-11-19T15:52:59.270Z,45.51
2022-11-19T15:55:30.624Z,45.67
2022-11-19T15:58:07.998Z,45.91
2022-11-19T16:00:45.743Z,45.99
2022-11-19T16:03:13.567Z,46.20
2022-11-19T16:05:49.005Z,46.39
2022-11-19T16:08:17.216Z,46.41
2022-11-19T16:10:47.395Z,46.17
2022-11-19T16:13:41.777Z,46.15
2022-11-19T16:16:43.826Z,45.86
2022-11-19T16:19:15.093Z,45.82
2022-11-19T16:21:48.034Z,45.55
2022-11-19T16:24:39.696Z,45.70
2022-11-19T16:27:12.862Z,46.39
2022-11-19T16:29:42.691Z,45.90
2022-11-19T16:32:17.304Z,46.26
2022-11-19T16:34:45.685Z,46.83
2022-11-19T16:37:15.843Z,47.01
2022-11-19T16:39:50.880Z,47.30
2022-11-19T16:42:25.918Z,47.35
2022-11-19T16:44:56.630Z,47.31
2022-11-19T16:47:29.547Z,47.40
2022-11-19T16:50:03.591Z,46.90
2022-11-19T16:52:43.482Z,47.57
2022-11-19T16:55:51.304Z,47.47
2022-11-19T16:58:25.324Z,48.05
2022-11-19T17:01:18.009Z,47.75
2022-11-19T17:03:51.579Z,48.05
2022-11-19T17:06:34.534Z,47.85
2022-11-19T17:09:44.697Z,47.19
2022-11-19T17:12:34.430Z,47.64
2022-11-19T17:15:43.680Z,47.34
2022-11-19T17:18:20.799Z,47.94
2022-11-19T17:20:55.656Z,47.27
2022-11-19T17:23:25.670Z,47.50
2022-11-19T17:25:58.503Z,47.48
2022-11-19T17:28:49.996Z,47.26
2022-11-19T17:31:27.378Z,47.49
2022-11-19T17:34:14.875Z,46.79
2022-11-19T17:36:56.397Z,47.46
2022-11-19T17:39:25.864Z,47.63
2022-11-19T17:42:14.915Z,47.58
2022-11-19T17:44:42.302Z,48.30
2022-11-19T17:47:24.253Z,47.87
2022-11-19T17:49:52.835Z,48.07
2022-11-19T17:52:23.865Z,48.12
2022-11-19T17:54:52.813Z,48.10
2022-11-19T17:57:21.447Z,48.64
2022-11-19T17:59:48.448Z,48.33
2022-11-19T18:02:18.571Z,48.72
2022-11-19T18:04:52.685Z,48.68
2022-11-19T18:07:24.746Z,48.74
2022-11-19T18:09:58.984Z,48.94
2022-11-19T18:12:39.471Z,49.07
2022-11-19T18:15:07.600Z,48.92
2022-11-19T18:17:50.205Z,48.53
2022-11-19T18:20:26.026Z,48.57
2022-11-19T18:22:53.828Z,48.71
2022-11-19T18:25:22.567Z,48.21
2022-11-19T18:27:51.018Z,48.39
2022-11-19T18:30:19.329Z,48.64
2022-11-19T18:32:46.491Z,48.96
2022-11-19T18:35:17.770Z,49.41
2022-11-19T18:37:45.520Z,49.58
2022-11-19T18:40:14.702Z,49.68
2022-11-19T18:43:03.692Z,49.63
2022-11-19T18:45:32.198Z,49.99
2022-11-19T18:47:59.139Z,51.15
2022-11-19T18:50:29.856Z,51.52
2022-11-19T18:52:57.423Z,51.50
2022-11-19T18:55:24.446Z,51.82
2022-11-19T18:57:52.133Z,51.62
2022-11-19T19:00:19.709Z,51.41
2022-11-19T19:02:48.386Z,51.65
2022-11-19T19:05:15.808Z,51.61
2022-11-19T19:07:42.824Z,51.22
2022-11-19T19:10:10.984Z,51.10
2022-11-19T19:12:38.014Z,51.27
2022-11-19T19:15:06.568Z,50.79
2022-11-19T19:17:33.540Z,50.61
2022-11-19T19:20:01.874Z,50.79
2022-11-19T19:22:29.192Z,50.94
2022-11-19T19:24:58.336Z,50.78
2022-11-19T19:27:25.596Z,50.98
2022-11-19T19:29:52.610Z,51.01
2022-11-19T19:32:19.604Z,51.05
2022-11-19T19:34:46.614Z,51.07
2022-11-19T19:37:15.327Z,50.93
2022-11-19T19:39:42.533Z,50.83
2022-11-19T19:42:09.592Z,50.88
2022-11-19T19:44:36.978Z,50.79
2022-11-19T19:47:05.094Z,51.21
2022-11-19T19:49:37.305Z,51.21
2022-11-19T19:52:05.609Z,51.67
2022-11-19T19:54:33.901Z,51.26
2022-11-19T19:57:00.842Z,51.41
2022-11-19T19:59:27.839Z,51.28
2022-11-19T20:01:55.092Z,51.47
2022-11-19T20:04:22.053Z,51.81
2022-11-19T20:06:50.929Z,51.57
2022-11-19T20:09:18.036Z,51.60
2022-11-19T20:11:46.940Z,51.37
2022-11-19T20:14:14.019Z,51.66
2022-11-19T20:16:41.694Z,51.92
2022-11-19T20:19:14.095Z,51.76
2022-11-19T20:21:41.318Z,52.01
2022-11-19T20:24:12.240Z,51.65
2022-11-19T20:26:42.204Z,51.59
2022-11-19T20:29:14.047Z,51.65
2022-11-19T20:31:45.958Z,51.98
2022-11-19T20:34:13.005Z,51.41
2022-11-19T20:36:40.381Z,51.41
2022-11-19T20:39:07.570Z,51.84
2022-11-19T20:41:53.215Z,51.54
2022-11-19T20:44:23.117Z,51.73
2022-11-19T20:46:53.228Z,51.58
2022-11-19T20:49:23.706Z,51.67
2022-11-19T20:51:52.534Z,51.37
2022-11-19T20:54:21.283Z,51.38
2022-11-19T20:56:49.409Z,51.06
2022-11-19T20:59:17.336Z,51.45
2022-11-19T21:01:47.193Z,51.33
2022-11-19T21:04:14.248Z,51.09
2022-11-19T21:06:42.579Z,50.86
2022-11-19T21:09:09.621Z,50.71
2022-11-19T21:11:36.636Z,50.72
2022-11-19T21:14:04.234Z,51.17
2022-11-19T21:16:32.686Z,50.87
2022-11-19T21:19:01.307Z,50.78
2022-11-19T21:21:28.277Z,51.06
2022-11-19T21:23:55.572Z,51.01
2022-11-19T21:26:25.448Z,50.96
2022-11-19T21:28:55.117Z,50.71
2022-11-19T21:31:38.701Z,51.01
2022-11-19T21:34:09.926Z,50.52
2022-11-19T21:36:38.039Z,50.39
2022-11-19T21:39:06.970Z,50.38
2022-11-19T21:41:34.605Z,50.70
2022-11-19T21:44:02.012Z,50.63
2022-11-19T21:46:29.462Z,50.77
2022-11-19T21:48:56.767Z,50.45
2022-11-19T21:51:25.601Z,50.37
2022-11-19T21:53:54.319Z,50.64
2022-11-19T21:56:21.446Z,50.75
2022-11-19T21:58:48.356Z,50.30
2022-11-19T22:01:15.567Z,50.23
2022-11-19T22:03:42.621Z,50.29
2022-11-19T22:06:11.867Z,50.09
2022-11-19T22:08:42.472Z,50.11
2022-11-19T22:11:30.113Z,50.45
2022-11-19T22:13:59.745Z,50.26
2022-11-19T22:16:27.332Z,50.50
2022-11-19T22:18:54.466Z,50.06
2022-11-19T22:21:21.720Z,50.00
2022-11-19T22:23:52.503Z,50.10
2022-11-19T22:26:19.526Z,49.99
2022-11-19T22:28:47.844Z,49.77
2022-11-19T22:31:15.590Z,49.74
2022-11-19T22:33:42.717Z,49.54
2022-11-19T22:36:11.318Z,49.42
2022-11-19T22:38:39.380Z,49.51
2022-11-19T22:41:11.255Z,49.33
2022-11-19T22:43:39.996Z,49.09
2022-11-19T22:46:09.530Z,49.63
2022-11-19T22:48:37.925Z,49.82
2022-11-19T22:51:07.760Z,50.02
2022-11-19T22:53:35.033Z,49.89
2022-11-19T22:56:02.338Z,50.18
2022-11-19T22:58:30.712Z,50.59
2022-11-19T23:00:57.879Z,50.55
2022-11-19T23:03:25.023Z,50.61
2022-11-19T23:05:53.726Z,50.32
2022-11-19T23:08:21.992Z,50.32
2022-11-19T23:10:49.048Z,50.40
2022-11-19T23:13:32.339Z,50.36
2022-11-19T23:16:07.250Z,50.41
2022-11-19T23:18:37.300Z,50.42
2022-11-19T23:21:08.657Z,50.31
2022-11-19T23:23:36.019Z,50.32
2022-11-19T23:26:05.002Z,50.80
2022-11-19T23:28:34.938Z,50.90
2022-11-19T23:31:10.310Z,50.85
2022-11-19T23:33:37.761Z,51.28
2022-11-19T23:36:08.057Z,51.40
2022-11-19T23:38:38.821Z,51.12
2022-11-19T23:41:08.093Z,51.68
2022-11-19T23:43:36.331Z,51.20
2022-11-19T23:46:07.578Z,51.21
2022-11-19T23:48:37.303Z,51.51
2022-11-19T23:51:07.197Z,51.44
2022-11-19T23:53:34.154Z,51.80
2022-11-19T23:56:01.944Z,51.84
2022-11-19T23:58:29.268Z,51.76
